Time;durP1;ratioP1;P1;durP2;ratioP2;P2;SDS_P1;SDS_P2;PMS_P1;PMS_P2;Temp;Humidity;BMP_temperature;BMP_pressure;BME280_temperature;BME280_humidity;BME280_pressure;Samples;Min_cycle;Max_cycle;Signal;HPM_P1;HPM_P2
2021/01/11 00:01:58;;;;;;;13.17;10.63;;;;;;;;;;5055802;28;20432;-59
2021/01/11 00:04:24;;;;;;;13.10;8.70;;;;;;;;;;5051980;28;20284;-59
2021/01/11 00:06:50;;;;;;;12.73;9.10;;;;;;;;;;5056402;28;20411;-59
2021/01/11 00:09:17;;;;;;;14.37;8.80;;;;;;;;;;5069805;28;20953;-59
2021/01/11 00:11:43;;;;;;;15.27;9.97;;;;;;;;;;5058496;28;20180;-59
2021/01/11 00:14:09;;;;;;;14.00;9.90;;;;;;;;;;5054566;28;20435;-60
2021/01/11 00:16:35;;;;;;;15.13;9.67;;;;;;;;;;5035817;28;20629;-59
2021/01/11 00:19:02;;;;;;;12.80;9.60;;;;;;;;;;5059583;28;20462;-59
2021/01/11 00:21:28;;;;;;;14.47;8.77;;;;;;;;;;5060827;28;20438;-60
2021/01/11 00:23:54;;;;;;;12.80;9.93;;;;;;;;;;5044479;28;20431;-58
2021/01/11 00:26:20;;;;;;;13.50;8.73;;;;;;;;;;5035702;28;20457;-59
2021/01/11 00:28:46;;;;;;;14.67;9.37;;;;;;;;;;5040264;28;20435;-59
2021/01/11 00:31:13;;;;;;;16.13;10.10;;;;;;;;;;5054910;28;20228;-59
2021/01/11 00:33:39;;;;;;;13.80;9.87;;;;;;;;;;5038503;28;20484;-59
2021/01/11 00:36:12;;;;;;;13.77;9.97;;;;;;;;;;5041468;28;20492;-60
2021/01/11 00:38:38;;;;;;;15.23;9.13;;;;;;;;;;5057737;28;20557;-58
2021/01/11 00:41:04;;;;;;;12.60;8.87;;;;;;;;;;5055972;28;20461;-59
2021/01/11 00:43:30;;;;;;;10.80;8.57;;;;;;;;;;5056624;28;20438;-60
2021/01/11 00:45:56;;;;;;;14.20;9.43;;;;;;;;;;5057822;28;20432;-59
2021/01/11 00:48:22;;;;;;;12.67;9.77;;;;;;;;;;5056827;28;20189;-59
2021/01/11 00:50:48;;;;;;;13.07;9.00;;;;;;;;;;5058909;28;20430;-58
2021/01/11 00:53:14;;;;;;;12.30;8.43;;;;;;;;;;5055499;28;20185;-58
2021/01/11 00:55:40;;;;;;;14.97;9.17;;;;;;;;;;5052007;28;20430;-61
2021/01/11 00:58:06;;;;;;;16.10;10.80;;;;;;;;;;5064891;28;20200;-58
2021/01/11 01:00:32;;;;;;;14.50;9.33;;;;;;;;;;5039908;28;20522;-59
2021/01/11 01:02:58;;;;;;;12.63;9.33;;;;;;;;;;5038085;28;20810;-60
2021/01/11 01:05:24;;;;;;;13.83;9.40;;;;;;;;;;5047376;28;20446;-58
2021/01/11 01:07:50;;;;;;;10.30;8.43;;;;;;;;;;5065398;28;20423;-58
2021/01/11 01:10:16;;;;;;;12.27;9.50;;;;;;;;;;5072833;28;20460;-59
2021/01/11 01:12:42;;;;;;;12.43;9.70;;;;;;;;;;5064013;28;20766;-59
2021/01/11 01:15:10;;;;;;;14.73;9.43;;;;;;;;;;5055267;28;20484;-58
2021/01/11 01:17:36;;;;;;;13.63;10.10;;;;;;;;;;5054208;28;21027;-59
2021/01/11 01:20:07;;;;;;;14.10;9.57;;;;;;;;;;5057238;28;20533;-59
2021/01/11 01:22:33;;;;;;;13.60;9.37;;;;;;;;;;5036337;28;20438;-59
2021/01/11 01:24:59;;;;;;;12.17;9.20;;;;;;;;;;5052105;28;20794;-59
2021/01/11 01:27:25;;;;;;;13.13;9.67;;;;;;;;;;5053639;28;20439;-59
2021/01/11 01:29:51;;;;;;;13.43;9.83;;;;;;;;;;5058183;28;20613;-59
2021/01/11 01:32:17;;;;;;;12.33;9.27;;;;;;;;;;5063718;28;20612;-58
2021/01/11 01:34:43;;;;;;;12.03;9.43;;;;;;;;;;5041072;28;20526;-58
2021/01/11 01:37:09;;;;;;;12.60;9.40;;;;;;;;;;5060960;28;20290;-58
2021/01/11 01:39:35;;;;;;;13.93;10.03;;;;;;;;;;5054559;28;20476;-58
2021/01/11 01:42:01;;;;;;;12.90;9.33;;;;;;;;;;5040742;28;20176;-59
2021/01/11 01:44:27;;;;;;;12.93;9.47;;;;;;;;;;5042275;28;20483;-58
2021/01/11 01:46:53;;;;;;;13.70;10.07;;;;;;;;;;5057715;28;20434;-58
2021/01/11 01:49:19;;;;;;;13.77;9.87;;;;;;;;;;5035572;28;20213;-60
2021/01/11 01:51:45;;;;;;;11.50;8.60;;;;;;;;;;5058516;28;20753;-58
2021/01/11 01:54:12;;;;;;;15.13;10.37;;;;;;;;;;5043318;28;20913;-58
2021/01/11 01:56:38;;;;;;;13.93;10.10;;;;;;;;;;5067298;28;20452;-59
2021/01/11 01:59:05;;;;;;;12.83;9.83;;;;;;;;;;5062840;28;20442;-59
2021/01/11 02:01:31;;;;;;;12.67;10.03;;;;;;;;;;5041441;28;20476;-59
2021/01/11 02:03:57;;;;;;;16.27;10.63;;;;;;;;;;5055913;28;20517;-58
2021/01/11 02:06:26;;;;;;;15.23;10.87;;;;;;;;;;5057995;28;20435;-58
2021/01/11 02:09:03;;;;;;;16.40;11.33;;;;;;;;;;5052069;28;20438;-59
2021/01/11 02:11:46;;;;;;;15.03;10.10;;;;;;;;;;5038724;28;20426;-58
2021/01/11 02:14:18;;;;;;;15.07;10.77;;;;;;;;;;5060571;28;20434;-59
2021/01/11 02:16:45;;;;;;;13.60;10.40;;;;;;;;;;5057917;28;20454;-58
2021/01/11 02:19:17;;;;;;;13.47;10.30;;;;;;;;;;5058059;28;20451;-60
2021/01/11 02:21:52;;;;;;;14.67;10.67;;;;;;;;;;5062227;28;20568;-58
2021/01/11 02:24:27;;;;;;;17.67;10.93;;;;;;;;;;5052801;28;20913;-58
2021/01/11 02:26:59;;;;;;;15.07;10.60;;;;;;;;;;5068885;28;20418;-59
2021/01/11 02:29:25;;;;;;;14.47;10.43;;;;;;;;;;5041372;28;20439;-60
2021/01/11 02:31:51;;;;;;;16.40;11.33;;;;;;;;;;5054256;28;20895;-59
2021/01/11 02:34:18;;;;;;;14.50;11.40;;;;;;;;;;5054306;28;20228;-60
2021/01/11 02:36:44;;;;;;;16.20;11.27;;;;;;;;;;5057855;28;20494;-58
2021/01/11 02:39:10;;;;;;;15.43;11.63;;;;;;;;;;5051009;28;20499;-58
2021/01/11 02:41:36;;;;;;;16.03;11.47;;;;;;;;;;5036062;28;20969;-59
2021/01/11 02:44:03;;;;;;;15.10;11.97;;;;;;;;;;5044527;28;20433;-59
2021/01/11 02:46:29;;;;;;;15.30;12.10;;;;;;;;;;5054892;28;20843;-59
2021/01/11 02:48:56;;;;;;;16.40;11.73;;;;;;;;;;5055611;28;20538;-60
2021/01/11 02:51:22;;;;;;;14.80;12.00;;;;;;;;;;5055028;28;20430;-58
2021/01/11 02:54:07;;;;;;;15.07;12.40;;;;;;;;;;5045652;28;20934;-59
2021/01/11 02:56:39;;;;;;;14.77;11.93;;;;;;;;;;5061166;28;20172;-58
2021/01/11 02:59:08;;;;;;;17.00;13.17;;;;;;;;;;5060392;28;20550;-58
2021/01/11 03:02:00;;;;;;;18.27;13.27;;;;;;;;;;5052992;28;20818;-59
2021/01/11 03:04:26;;;;;;;17.13;12.87;;;;;;;;;;5031482;28;20482;-61
2021/01/11 03:06:57;;;;;;;16.83;12.57;;;;;;;;;;5057444;28;20457;-59
2021/01/11 03:09:23;;;;;;;15.93;12.40;;;;;;;;;;5050367;28;20434;-58
2021/01/11 03:11:49;;;;;;;17.37;12.63;;;;;;;;;;5057287;28;20434;-59
2021/01/11 03:14:15;;;;;;;17.17;12.63;;;;;;;;;;5063454;28;20786;-58
2021/01/11 03:16:41;;;;;;;16.47;12.23;;;;;;;;;;5055592;28;20434;-58
2021/01/11 03:19:07;;;;;;;17.80;13.57;;;;;;;;;;5032426;28;20786;-59
2021/01/11 03:21:36;;;;;;;18.47;12.83;;;;;;;;;;5052405;28;20439;-59
2021/01/11 03:24:02;;;;;;;19.07;13.17;;;;;;;;;;5051180;28;20424;-58
2021/01/11 03:26:28;;;;;;;20.43;14.30;;;;;;;;;;5062811;28;20448;-58
2021/01/11 03:28:54;;;;;;;17.43;13.80;;;;;;;;;;5056661;28;20458;-59
2021/01/11 03:31:21;;;;;;;19.07;14.20;;;;;;;;;;5051412;28;20448;-59
2021/01/11 03:33:47;;;;;;;19.47;14.70;;;;;;;;;;5051263;28;20442;-59
2021/01/11 03:36:13;;;;;;;20.30;15.00;;;;;;;;;;5055219;28;20435;-59
2021/01/11 03:38:40;;;;;;;17.77;14.83;;;;;;;;;;5056839;28;20819;-59
2021/01/11 03:41:08;;;;;;;20.67;15.40;;;;;;;;;;5049728;28;20412;-60
2021/01/11 03:43:34;;;;;;;20.13;16.20;;;;;;;;;;5054465;28;20427;-58
2021/01/11 03:46:00;;;;;;;19.10;16.13;;;;;;;;;;5036888;28;20430;-58
2021/01/11 03:48:26;;;;;;;25.97;16.20;;;;;;;;;;5052267;28;20779;-58
2021/01/11 03:50:52;;;;;;;23.00;17.63;;;;;;;;;;5040055;28;20185;-59
2021/01/11 03:53:18;;;;;;;20.77;16.70;;;;;;;;;;5062223;28;20598;-58
2021/01/11 03:55:44;;;;;;;24.03;17.80;;;;;;;;;;5052129;28;20539;-59
2021/01/11 03:58:10;;;;;;;22.87;16.83;;;;;;;;;;5063785;28;20528;-60
2021/01/11 04:00:36;;;;;;;25.47;17.40;;;;;;;;;;5038849;28;20224;-60
2021/01/11 04:03:03;;;;;;;25.37;18.23;;;;;;;;;;5056089;28;20462;-59
2021/01/11 04:05:30;;;;;;;22.07;16.00;;;;;;;;;;5057369;28;20463;-59
2021/01/11 04:07:56;;;;;;;24.07;18.03;;;;;;;;;;5060400;28;20427;-60
2021/01/11 04:10:22;;;;;;;22.50;17.17;;;;;;;;;;5046879;28;20477;-58
2021/01/11 04:12:48;;;;;;;26.57;17.67;;;;;;;;;;5057063;28;20463;-60
2021/01/11 04:15:14;;;;;;;25.17;18.97;;;;;;;;;;5042567;28;20230;-60
2021/01/11 04:17:40;;;;;;;24.90;18.40;;;;;;;;;;5040623;28;21476;-58
2021/01/11 04:20:07;;;;;;;25.17;18.50;;;;;;;;;;5061535;28;20462;-60
2021/01/11 04:22:33;;;;;;;22.90;18.37;;;;;;;;;;5057942;28;20537;-59
2021/01/11 04:24:59;;;;;;;25.47;19.13;;;;;;;;;;5053912;28;20436;-60
2021/01/11 04:27:25;;;;;;;24.80;19.13;;;;;;;;;;5057493;28;20474;-59
2021/01/11 04:29:51;;;;;;;26.60;19.27;;;;;;;;;;5046148;28;20515;-59
2021/01/11 04:32:17;;;;;;;24.10;19.13;;;;;;;;;;5063735;28;20247;-58
2021/01/11 04:34:43;;;;;;;23.73;18.87;;;;;;;;;;5054811;28;20439;-59
2021/01/11 04:37:10;;;;;;;27.47;19.20;;;;;;;;;;5058252;28;20463;-59
2021/01/11 04:39:37;;;;;;;22.70;17.83;;;;;;;;;;5035491;28;20411;-60
2021/01/11 04:42:05;;;;;;;24.30;17.43;;;;;;;;;;5035653;28;20424;-59
2021/01/11 04:44:33;;;;;;;23.70;18.37;;;;;;;;;;5043049;28;20435;-58
2021/01/11 04:46:59;;;;;;;20.70;16.60;;;;;;;;;;5055019;28;20431;-60
2021/01/11 04:49:26;;;;;;;24.63;18.97;;;;;;;;;;5054959;28;20467;-59
2021/01/11 04:51:52;;;;;;;24.93;18.73;;;;;;;;;;5041530;28;20525;-58
2021/01/11 04:54:18;;;;;;;20.17;16.67;;;;;;;;;;5064103;28;20427;-58
2021/01/11 04:56:47;;;;;;;23.60;18.63;;;;;;;;;;5052993;28;20419;-58
2021/01/11 04:59:17;;;;;;;24.37;18.83;;;;;;;;;;5053932;28;20970;-59
2021/01/11 05:01:43;;;;;;;23.03;17.57;;;;;;;;;;5043006;28;20423;-58
2021/01/11 05:04:11;;;;;;;22.83;18.17;;;;;;;;;;5054032;28;20555;-58
2021/01/11 05:06:37;;;;;;;22.77;17.70;;;;;;;;;;5050561;28;20458;-58
2021/01/11 05:09:07;;;;;;;24.80;17.83;;;;;;;;;;5053659;28;20460;-59
2021/01/11 05:11:33;;;;;;;24.40;17.57;;;;;;;;;;5052987;28;20427;-59
2021/01/11 05:13:59;;;;;;;26.97;18.90;;;;;;;;;;5053904;28;21033;-60
2021/01/11 05:16:25;;;;;;;26.20;18.50;;;;;;;;;;5058094;28;20454;-58
2021/01/11 05:18:56;;;;;;;22.77;17.57;;;;;;;;;;5053989;28;20611;-58
2021/01/11 05:21:41;;;;;;;22.97;17.47;;;;;;;;;;5055793;28;20565;-58
2021/01/11 05:24:26;;;;;;;25.93;17.90;;;;;;;;;;5061517;28;20890;-59
2021/01/11 05:26:53;;;;;;;22.77;16.70;;;;;;;;;;5055843;28;20434;-58
2021/01/11 05:29:19;;;;;;;25.67;18.20;;;;;;;;;;5039640;28;20427;-59
2021/01/11 05:31:52;;;;;;;23.27;17.80;;;;;;;;;;5053345;28;20952;-59
2021/01/11 05:34:18;;;;;;;23.53;16.17;;;;;;;;;;5053996;28;20443;-59
2021/01/11 05:36:46;;;;;;;24.57;18.90;;;;;;;;;;5059331;28;20431;-59
2021/01/11 05:39:13;;;;;;;19.87;15.87;;;;;;;;;;5068434;28;20515;-58
2021/01/11 05:41:42;;;;;;;23.57;18.17;;;;;;;;;;5061076;28;20784;-59
2021/01/11 05:44:11;;;;;;;26.50;18.87;;;;;;;;;;5057901;28;21388;-59
2021/01/11 05:46:37;;;;;;;24.60;18.67;;;;;;;;;;5056244;28;20427;-59
2021/01/11 05:49:08;;;;;;;24.73;17.87;;;;;;;;;;5058297;28;20449;-60
2021/01/11 05:51:35;;;;;;;25.93;18.07;;;;;;;;;;5042455;28;20432;-59
2021/01/11 05:54:01;;;;;;;23.20;18.10;;;;;;;;;;5054175;28;20458;-59
2021/01/11 05:56:27;;;;;;;23.77;17.67;;;;;;;;;;5056839;28;20921;-59
2021/01/11 05:59:06;;;;;;;28.47;18.23;;;;;;;;;;5054719;28;21037;-59
2021/01/11 06:01:33;;;;;;;26.23;19.00;;;;;;;;;;5036633;28;20431;-58
2021/01/11 06:03:59;;;;;;;24.43;18.50;;;;;;;;;;5066397;28;20470;-59
2021/01/11 06:06:26;;;;;;;26.67;19.43;;;;;;;;;;5057132;28;20453;-58
2021/01/11 06:08:52;;;;;;;23.50;17.53;;;;;;;;;;5065138;28;20499;-58
2021/01/11 06:11:21;;;;;;;23.20;17.93;;;;;;;;;;5055248;28;20427;-58
2021/01/11 06:13:48;;;;;;;28.27;19.13;;;;;;;;;;5064135;28;20450;-59
2021/01/11 06:16:17;;;;;;;24.60;18.10;;;;;;;;;;5053814;28;20801;-59
2021/01/11 06:18:43;;;;;;;25.10;19.30;;;;;;;;;;5057570;28;20470;-59
2021/01/11 06:21:11;;;;;;;27.47;18.97;;;;;;;;;;5062349;28;20436;-59
2021/01/11 06:23:40;;;;;;;26.47;18.93;;;;;;;;;;5065059;28;20423;-59
2021/01/11 06:26:25;;;;;;;28.93;19.57;;;;;;;;;;5058526;28;20423;-58
2021/01/11 06:28:51;;;;;;;23.23;18.37;;;;;;;;;;5041408;28;20922;-58
2021/01/11 06:31:18;;;;;;;28.93;19.70;;;;;;;;;;5057213;28;20467;-58
2021/01/11 06:33:44;;;;;;;28.67;19.00;;;;;;;;;;5050465;28;20547;-58
2021/01/11 06:36:29;;;;;;;27.70;20.10;;;;;;;;;;5061697;28;20822;-58
2021/01/11 06:38:56;;;;;;;27.57;18.23;;;;;;;;;;5056783;28;20462;-58
2021/01/11 06:41:27;;;;;;;28.63;19.60;;;;;;;;;;5044760;28;20937;-59
2021/01/11 06:43:54;;;;;;;28.47;19.40;;;;;;;;;;5062051;28;20449;-60
2021/01/11 06:46:29;;;;;;;26.17;18.67;;;;;;;;;;5057988;28;20444;-58
2021/01/11 06:49:00;;;;;;;25.93;18.60;;;;;;;;;;5053688;28;20474;-58
2021/01/11 06:51:29;;;;;;;27.57;19.60;;;;;;;;;;5061591;28;20470;-57
2021/01/11 06:54:11;;;;;;;29.70;20.10;;;;;;;;;;5058755;28;20428;-59
2021/01/11 06:56:38;;;;;;;24.50;18.13;;;;;;;;;;5066543;28;20461;-60
2021/01/11 06:59:13;;;;;;;29.73;19.90;;;;;;;;;;5056645;28;20953;-58
2021/01/11 07:01:40;;;;;;;28.27;18.70;;;;;;;;;;5061516;28;20495;-58
2021/01/11 07:04:06;;;;;;;26.83;19.77;;;;;;;;;;5046082;28;20520;-58
2021/01/11 07:06:35;;;;;;;25.03;19.07;;;;;;;;;;5055575;28;20467;-58
2021/01/11 07:09:06;;;;;;;25.63;19.10;;;;;;;;;;5069456;28;20403;-58
2021/01/11 07:11:35;;;;;;;23.23;17.40;;;;;;;;;;5048056;28;20490;-58
2021/01/11 07:14:02;;;;;;;27.43;19.53;;;;;;;;;;5048374;28;20435;-58
2021/01/11 07:16:49;;;;;;;24.43;18.00;;;;;;;;;;5045973;28;20910;-58
2021/01/11 07:19:20;;;;;;;26.00;18.33;;;;;;;;;;5052375;28;20435;-58
2021/01/11 07:21:49;;;;;;;26.63;17.73;;;;;;;;;;5054540;28;20431;-58
2021/01/11 07:24:16;;;;;;;24.13;17.93;;;;;;;;;;5070116;28;20398;-58
2021/01/11 07:26:42;;;;;;;24.97;17.97;;;;;;;;;;5059738;28;20429;-58
2021/01/11 07:29:13;;;;;;;26.27;16.80;;;;;;;;;;5056765;28;20980;-58
2021/01/11 07:31:43;;;;;;;24.50;17.83;;;;;;;;;;5043792;28;20460;-58
2021/01/11 07:34:13;;;;;;;24.60;18.00;;;;;;;;;;5069894;28;20413;-61
2021/01/11 07:36:43;;;;;;;23.67;17.43;;;;;;;;;;5062507;28;20430;-59
2021/01/11 07:39:10;;;;;;;23.03;16.83;;;;;;;;;;5045818;28;20426;-58
2021/01/11 07:41:50;;;;;;;23.10;17.90;;;;;;;;;;5069654;28;20417;-58
2021/01/11 07:44:17;;;;;;;22.80;17.00;;;;;;;;;;5052905;28;20436;-58
2021/01/11 07:46:56;;;;;;;22.60;17.73;;;;;;;;;;5062813;28;20514;-58
2021/01/11 07:49:22;;;;;;;24.10;17.30;;;;;;;;;;5050947;28;20423;-58
2021/01/11 07:51:49;;;;;;;25.53;18.70;;;;;;;;;;5041192;28;20871;-59
2021/01/11 07:54:20;;;;;;;24.73;17.40;;;;;;;;;;5042960;28;20488;-59
2021/01/11 07:56:46;;;;;;;21.20;17.03;;;;;;;;;;5053377;28;20418;-58
2021/01/11 07:59:13;;;;;;;27.40;16.57;;;;;;;;;;5051675;28;20471;-59
2021/01/11 08:01:43;;;;;;;23.87;16.90;;;;;;;;;;5055987;28;20477;-58
2021/01/11 08:04:13;;;;;;;20.33;16.70;;;;;;;;;;5061753;28;20739;-59
2021/01/11 08:06:56;;;;;;;21.60;16.23;;;;;;;;;;5047779;28;20430;-58
2021/01/11 08:09:23;;;;;;;21.83;16.60;;;;;;;;;;5058545;28;20807;-58
2021/01/11 08:11:50;;;;;;;23.57;16.60;;;;;;;;;;5086349;28;20405;-58
2021/01/11 08:14:16;;;;;;;20.77;15.60;;;;;;;;;;5070581;28;20452;-59
2021/01/11 08:16:44;;;;;;;20.83;16.13;;;;;;;;;;5059860;28;20480;-58
2021/01/11 08:19:11;;;;;;;20.37;15.30;;;;;;;;;;5068692;28;20417;-58
2021/01/11 08:21:37;;;;;;;19.43;15.73;;;;;;;;;;5036978;28;20918;-59
2021/01/11 08:24:07;;;;;;;20.37;14.20;;;;;;;;;;5083579;28;20409;-58
2021/01/11 08:26:34;;;;;;;21.70;15.77;;;;;;;;;;5064934;28;20466;-58
2021/01/11 08:29:00;;;;;;;19.77;15.47;;;;;;;;;;5059598;28;20435;-58
2021/01/11 08:31:27;;;;;;;19.97;15.67;;;;;;;;;;5058912;28;20507;-59
2021/01/11 08:33:54;;;;;;;19.97;14.40;;;;;;;;;;5069481;28;20429;-58
2021/01/11 08:36:21;;;;;;;22.50;15.87;;;;;;;;;;5042143;28;20431;-58
2021/01/11 08:39:06;;;;;;;19.80;14.07;;;;;;;;;;5049325;28;20466;-58
2021/01/11 08:41:33;;;;;;;20.50;14.97;;;;;;;;;;5075413;28;20451;-58
2021/01/11 08:43:59;;;;;;;18.90;14.10;;;;;;;;;;5072713;28;20402;-58
2021/01/11 08:46:25;;;;;;;20.33;15.00;;;;;;;;;;5073016;28;20399;-58
2021/01/11 08:49:05;;;;;;;16.10;13.20;;;;;;;;;;5060941;28;20616;-58
2021/01/11 08:51:31;;;;;;;20.03;15.53;;;;;;;;;;5053358;28;20427;-60
2021/01/11 08:53:57;;;;;;;18.20;13.93;;;;;;;;;;5056658;28;20431;-59
2021/01/11 08:56:29;;;;;;;18.03;13.70;;;;;;;;;;5052593;28;20818;-58
2021/01/11 08:58:55;;;;;;;19.83;14.30;;;;;;;;;;5053105;28;20455;-58
2021/01/11 09:01:24;;;;;;;18.13;14.30;;;;;;;;;;5066550;28;20959;-58
2021/01/11 09:03:55;;;;;;;15.87;13.07;;;;;;;;;;5058646;28;20466;-57
2021/01/11 09:06:40;;;;;;;17.93;14.60;;;;;;;;;;5059874;28;20907;-60
2021/01/11 09:09:10;;;;;;;20.60;14.77;;;;;;;;;;5055997;28;20419;-60
2021/01/11 09:11:36;;;;;;;19.30;14.00;;;;;;;;;;5050918;28;20407;-58
2021/01/11 09:14:06;;;;;;;19.60;14.47;;;;;;;;;;5059377;28;20765;-58
2021/01/11 09:16:32;;;;;;;19.40;13.70;;;;;;;;;;5077388;28;20472;-58
2021/01/11 09:19:09;;;;;;;19.83;14.93;;;;;;;;;;5048766;28;20463;-59
2021/01/11 09:21:35;;;;;;;22.67;14.23;;;;;;;;;;5068929;28;20426;-59
2021/01/11 09:24:01;;;;;;;18.30;14.10;;;;;;;;;;5067513;28;20937;-58
2021/01/11 09:26:27;;;;;;;20.87;13.27;;;;;;;;;;5051557;28;20416;-58
2021/01/11 09:28:54;;;;;;;19.73;14.67;;;;;;;;;;5066811;28;20526;-58
2021/01/11 09:31:21;;;;;;;19.97;14.07;;;;;;;;;;5042185;28;20444;-58
2021/01/11 09:33:47;;;;;;;20.50;13.80;;;;;;;;;;5033484;28;20449;-58
2021/01/11 09:36:13;;;;;;;18.50;13.70;;;;;;;;;;5055942;28;20432;-58
2021/01/11 09:38:39;;;;;;;17.43;13.40;;;;;;;;;;5066901;28;21268;-58
2021/01/11 09:41:05;;;;;;;16.90;12.60;;;;;;;;;;5058110;28;20442;-58
2021/01/11 09:43:31;;;;;;;20.03;13.40;;;;;;;;;;5057005;28;20192;-58
2021/01/11 09:45:59;;;;;;;18.37;12.13;;;;;;;;;;5066908;28;20188;-59
2021/01/11 09:48:25;;;;;;;18.77;12.73;;;;;;;;;;5066518;28;20490;-58
2021/01/11 09:50:51;;;;;;;14.37;12.10;;;;;;;;;;5063382;28;20431;-58
2021/01/11 09:53:17;;;;;;;19.47;13.03;;;;;;;;;;5052604;28;20427;-58
2021/01/11 09:55:43;;;;;;;18.63;12.90;;;;;;;;;;5065741;28;20222;-57
2021/01/11 09:58:14;;;;;;;17.47;11.63;;;;;;;;;;5051915;28;20491;-61
2021/01/11 10:00:40;;;;;;;16.90;13.00;;;;;;;;;;5052389;28;20415;-57
2021/01/11 10:03:06;;;;;;;16.93;12.47;;;;;;;;;;5050869;28;20828;-59
2021/01/11 10:05:33;;;;;;;13.30;10.90;;;;;;;;;;5054628;28;20427;-58
2021/01/11 10:07:59;;;;;;;17.30;11.87;;;;;;;;;;5064992;28;20426;-58
2021/01/11 10:10:25;;;;;;;16.47;11.90;;;;;;;;;;5055016;28;20892;-58
2021/01/11 10:12:51;;;;;;;17.67;11.83;;;;;;;;;;5050899;28;21445;-58
2021/01/11 10:15:17;;;;;;;16.67;12.47;;;;;;;;;;5060769;28;20965;-58
2021/01/11 10:17:43;;;;;;;15.77;11.17;;;;;;;;;;5041972;28;20495;-57
2021/01/11 10:20:10;;;;;;;13.97;10.93;;;;;;;;;;5061461;28;20264;-59
2021/01/11 10:22:36;;;;;;;17.13;10.83;;;;;;;;;;5057738;28;20249;-58
2021/01/11 10:25:03;;;;;;;16.70;11.67;;;;;;;;;;5052173;28;20428;-59
2021/01/11 10:27:29;;;;;;;16.67;11.47;;;;;;;;;;5064038;28;20881;-59
2021/01/11 10:29:55;;;;;;;15.53;10.47;;;;;;;;;;5070087;28;20513;-57
2021/01/11 10:32:21;;;;;;;16.97;11.50;;;;;;;;;;5068393;28;20517;-58
2021/01/11 10:34:47;;;;;;;14.20;10.47;;;;;;;;;;5070361;28;20410;-58
2021/01/11 10:37:13;;;;;;;14.10;10.63;;;;;;;;;;5067372;28;20454;-58
2021/01/11 10:39:39;;;;;;;15.40;10.93;;;;;;;;;;5037791;28;20201;-60
2021/01/11 10:42:05;;;;;;;14.70;11.10;;;;;;;;;;5062968;28;20488;-59
2021/01/11 10:44:31;;;;;;;13.63;10.70;;;;;;;;;;5052257;28;20419;-58
2021/01/11 10:46:59;;;;;;;12.73;9.67;;;;;;;;;;5060343;28;20466;-59
2021/01/11 10:49:25;;;;;;;16.07;10.10;;;;;;;;;;5066134;28;20415;-59
2021/01/11 10:51:51;;;;;;;13.03;10.13;;;;;;;;;;5064820;28;20782;-59
2021/01/11 10:54:18;;;;;;;12.77;10.10;;;;;;;;;;5051154;28;20793;-59
2021/01/11 10:56:44;;;;;;;14.20;10.07;;;;;;;;;;5054923;28;20451;-59
2021/01/11 10:59:10;;;;;;;11.37;8.83;;;;;;;;;;5054219;28;20526;-59
2021/01/11 11:01:36;;;;;;;17.10;10.47;;;;;;;;;;5055865;28;20768;-58
2021/01/11 11:04:03;;;;;;;13.87;10.00;;;;;;;;;;5062196;28;20506;-59
2021/01/11 11:06:29;;;;;;;14.83;10.27;;;;;;;;;;5051045;28;20445;-59
2021/01/11 11:08:55;;;;;;;13.80;10.37;;;;;;;;;;5035862;28;20411;-58
2021/01/11 11:11:22;;;;;;;13.43;9.80;;;;;;;;;;5052761;28;20169;-58
2021/01/11 11:13:48;;;;;;;13.13;9.17;;;;;;;;;;5042330;28;20867;-59
2021/01/11 11:16:14;;;;;;;14.17;9.70;;;;;;;;;;5054794;28;20473;-59
2021/01/11 11:18:41;;;;;;;13.07;9.83;;;;;;;;;;5039800;28;20450;-58
2021/01/11 11:21:08;;;;;;;13.33;9.40;;;;;;;;;;5068913;28;20806;-60
2021/01/11 11:23:35;;;;;;;12.67;8.97;;;;;;;;;;5039582;28;20406;-58
2021/01/11 11:26:01;;;;;;;13.60;9.07;;;;;;;;;;5069077;28;20539;-58
2021/01/11 11:28:28;;;;;;;12.83;9.07;;;;;;;;;;5069598;28;20414;-58
2021/01/11 11:30:54;;;;;;;13.37;9.07;;;;;;;;;;5063709;28;20447;-58
2021/01/11 11:33:20;;;;;;;13.17;9.63;;;;;;;;;;5049383;28;20415;-59
2021/01/11 11:35:46;;;;;;;12.23;8.50;;;;;;;;;;5055191;28;20431;-58
2021/01/11 11:38:12;;;;;;;13.47;9.53;;;;;;;;;;5051383;28;20446;-58
2021/01/11 11:40:39;;;;;;;11.10;8.00;;;;;;;;;;5068472;28;20426;-59
2021/01/11 11:43:05;;;;;;;12.90;8.97;;;;;;;;;;5067508;28;20173;-58
2021/01/11 11:45:32;;;;;;;11.40;8.47;;;;;;;;;;5054133;28;20473;-58
2021/01/11 11:47:58;;;;;;;11.43;9.20;;;;;;;;;;5062964;28;20423;-59
2021/01/11 11:50:24;;;;;;;11.17;8.30;;;;;;;;;;5049297;28;20424;-59
2021/01/11 11:52:50;;;;;;;11.53;8.87;;;;;;;;;;5031243;28;20455;-59
2021/01/11 11:55:16;;;;;;;11.47;8.37;;;;;;;;;;5050475;28;20454;-57
2021/01/11 11:57:43;;;;;;;11.40;8.07;;;;;;;;;;5053156;28;20203;-58
2021/01/11 12:00:16;;;;;;;12.50;7.93;;;;;;;;;;5052221;28;20415;-58
2021/01/11 12:02:43;;;;;;;10.93;7.70;;;;;;;;;;5069436;28;21374;-58
2021/01/11 12:05:13;;;;;;;11.53;8.57;;;;;;;;;;5055759;28;20408;-59
2021/01/11 12:07:39;;;;;;;9.20;7.33;;;;;;;;;;5051553;28;20831;-58
2021/01/11 12:10:06;;;;;;;10.00;8.53;;;;;;;;;;5032314;28;20430;-59
2021/01/11 12:12:32;;;;;;;11.43;8.13;;;;;;;;;;5060856;28;20414;-60
2021/01/11 12:14:59;;;;;;;8.10;6.93;;;;;;;;;;5056851;28;20462;-59
2021/01/11 12:17:25;;;;;;;13.33;8.30;;;;;;;;;;5039869;28;20463;-59
2021/01/11 12:19:51;;;;;;;9.60;7.87;;;;;;;;;;5060660;28;20426;-59
2021/01/11 12:22:17;;;;;;;10.50;7.53;;;;;;;;;;5064900;28;21255;-58
2021/01/11 12:24:43;;;;;;;11.83;8.33;;;;;;;;;;5053282;28;20780;-58
2021/01/11 12:27:09;;;;;;;10.30;7.40;;;;;;;;;;5052589;28;20411;-58
2021/01/11 12:29:35;;;;;;;11.20;7.77;;;;;;;;;;5052284;28;20208;-58
2021/01/11 12:32:09;;;;;;;11.17;7.47;;;;;;;;;;5065326;28;21019;-58
2021/01/11 12:34:44;;;;;;;9.20;7.60;;;;;;;;;;5070579;28;20607;-59
2021/01/11 12:37:14;;;;;;;10.97;7.80;;;;;;;;;;5072456;28;20983;-59
2021/01/11 12:39:40;;;;;;;8.83;6.77;;;;;;;;;;5069057;28;20425;-58
2021/01/11 12:42:07;;;;;;;10.53;7.43;;;;;;;;;;5052302;28;20404;-58
2021/01/11 12:44:33;;;;;;;10.77;7.30;;;;;;;;;;5051910;28;20447;-58
2021/01/11 12:47:00;;;;;;;10.73;6.83;;;;;;;;;;5058808;28;20431;-59
2021/01/11 12:49:26;;;;;;;9.07;6.90;;;;;;;;;;5067228;28;20422;-58
2021/01/11 12:51:53;;;;;;;8.93;7.07;;;;;;;;;;5056018;28;20785;-58
2021/01/11 12:54:19;;;;;;;10.30;7.47;;;;;;;;;;5052127;28;20431;-60
2021/01/11 12:56:46;;;;;;;13.37;7.40;;;;;;;;;;5052034;28;20412;-59
2021/01/11 12:59:12;;;;;;;11.73;7.93;;;;;;;;;;5064648;28;20556;-58
2021/01/11 13:01:39;;;;;;;9.37;6.47;;;;;;;;;;5049028;28;20982;-58
2021/01/11 13:04:05;;;;;;;9.20;6.60;;;;;;;;;;5052975;28;20470;-59
2021/01/11 13:06:31;;;;;;;9.20;7.17;;;;;;;;;;5070520;28;20488;-60
2021/01/11 13:08:58;;;;;;;10.07;6.97;;;;;;;;;;5066938;28;20431;-58
2021/01/11 13:11:25;;;;;;;9.07;6.90;;;;;;;;;;5059249;28;20181;-58
2021/01/11 13:13:53;;;;;;;10.90;6.47;;;;;;;;;;5039507;28;20462;-59
2021/01/11 13:16:42;;;;;;;8.87;6.93;;;;;;;;;;5074971;28;20507;-59
2021/01/11 13:19:09;;;;;;;9.10;7.23;;;;;;;;;;5058808;28;20474;-58
2021/01/11 13:21:35;;;;;;;9.13;7.60;;;;;;;;;;5071001;28;20426;-58
2021/01/11 13:24:02;;;;;;;9.00;7.40;;;;;;;;;;5050346;28;20936;-59
2021/01/11 13:26:29;;;;;;;13.87;6.73;;;;;;;;;;5051481;28;20423;-59
2021/01/11 13:28:56;;;;;;;9.80;6.43;;;;;;;;;;5064195;28;20449;-58
2021/01/11 13:31:22;;;;;;;8.07;6.23;;;;;;;;;;5066360;28;20483;-59
2021/01/11 13:33:48;;;;;;;10.23;7.40;;;;;;;;;;5046253;28;20422;-58
2021/01/11 13:36:22;;;;;;;8.17;6.93;;;;;;;;;;5070851;28;20422;-59
2021/01/11 13:38:48;;;;;;;8.40;6.67;;;;;;;;;;5071403;28;20976;-58
2021/01/11 13:41:14;;;;;;;10.80;6.97;;;;;;;;;;5063466;28;20755;-59
2021/01/11 13:43:40;;;;;;;8.90;7.37;;;;;;;;;;5033734;28;20428;-59
2021/01/11 13:46:06;;;;;;;9.40;6.73;;;;;;;;;;5046468;28;20922;-58
2021/01/11 13:48:32;;;;;;;9.07;6.40;;;;;;;;;;5051223;28;20428;-58
2021/01/11 13:50:58;;;;;;;9.27;7.00;;;;;;;;;;5056999;28;20193;-59
2021/01/11 13:53:24;;;;;;;12.03;6.57;;;;;;;;;;5071444;28;20501;-59
2021/01/11 13:55:50;;;;;;;10.70;7.13;;;;;;;;;;5066232;28;21201;-58
2021/01/11 13:58:17;;;;;;;8.67;7.37;;;;;;;;;;5056253;28;20461;-58
2021/01/11 14:00:43;;;;;;;13.70;7.40;;;;;;;;;;5049748;28;20184;-58
2021/01/11 14:03:09;;;;;;;9.37;6.80;;;;;;;;;;5065817;28;20540;-60
2021/01/11 14:05:35;;;;;;;9.23;6.00;;;;;;;;;;5061938;28;20442;-58
2021/01/11 14:08:02;;;;;;;9.63;7.03;;;;;;;;;;5061871;28;20190;-59
2021/01/11 14:10:28;;;;;;;7.67;6.13;;;;;;;;;;5057327;28;20422;-59
2021/01/11 14:12:54;;;;;;;8.33;6.30;;;;;;;;;;5070435;28;20422;-60
2021/01/11 14:15:20;;;;;;;10.33;7.17;;;;;;;;;;5056872;28;20434;-60
2021/01/11 14:17:46;;;;;;;10.27;7.27;;;;;;;;;;5054932;28;20455;-58
2021/01/11 14:20:14;;;;;;;9.77;7.37;;;;;;;;;;5061471;28;20412;-58
2021/01/11 14:22:40;;;;;;;8.10;6.27;;;;;;;;;;5032595;28;20416;-59
2021/01/11 14:25:06;;;;;;;9.87;6.67;;;;;;;;;;5050658;28;20407;-59
2021/01/11 14:27:32;;;;;;;9.70;7.03;;;;;;;;;;5051504;28;20428;-59